createdAt,value
2019-03-18T00:00:56.139Z,77.89
2019-03-18T00:03:44.021Z,81.56
2019-03-18T00:06:32.368Z,81.99
2019-03-18T00:09:20.847Z,81.32
2019-03-18T00:12:09.199Z,78.34
2019-03-18T00:15:01.377Z,77.59
2019-03-18T00:17:47.335Z,76.57
2019-03-18T00:20:35.364Z,76.63
2019-03-18T00:23:23.752Z,76.69
2019-03-18T00:26:12.628Z,76.78
2019-03-18T00:29:01.093Z,79.36
2019-03-18T00:31:49.435Z,78.96
2019-03-18T00:34:37.825Z,79.33
2019-03-18T00:37:26.336Z,80.55
2019-03-18T00:40:14.148Z,79.58
2019-03-18T00:43:02.718Z,79.19
2019-03-18T00:45:50.867Z,81.49
2019-03-18T00:48:38.607Z,83.78
2019-03-18T00:51:26.814Z,83.45
2019-03-18T00:54:14.759Z,84.02
2019-03-18T00:57:02.811Z,84.68
2019-03-18T00:59:51.312Z,84.67
2019-03-18T01:02:39.758Z,82.81
2019-03-18T01:05:27.608Z,83.79
2019-03-18T01:08:15.302Z,81.57
2019-03-18T01:11:03.596Z,81.71
2019-03-18T01:13:51.931Z,82.11
2019-03-18T01:16:40.549Z,82.44
2019-03-18T01:19:28.686Z,86.15
2019-03-18T01:22:16.809Z,88.18
2019-03-18T01:25:04.637Z,87.03
2019-03-18T01:27:52.932Z,87.14
2019-03-18T01:30:41.381Z,86.61
2019-03-18T01:33:29.536Z,85.91
2019-03-18T01:36:17.895Z,84.78
2019-03-18T01:39:07.026Z,84.68
2019-03-18T01:41:55.279Z,85.00
2019-03-18T01:44:43.688Z,84.70
2019-03-18T01:47:32.130Z,83.12
2019-03-18T01:50:20.388Z,81.46
2019-03-18T01:53:09.495Z,81.86
2019-03-18T01:55:58.076Z,81.91
2019-03-18T01:58:46.220Z,80.82
2019-03-18T02:01:34.600Z,81.18
2019-03-18T02:04:22.984Z,83.36
2019-03-18T02:07:11.303Z,84.76
2019-03-18T02:09:59.616Z,84.64
2019-03-18T02:12:48.049Z,84.62
2019-03-18T02:15:36.430Z,82.41
2019-03-18T02:18:24.612Z,81.22
2019-03-18T02:21:12.873Z,81.19
2019-03-18T02:24:00.797Z,80.19
2019-03-18T02:26:49.156Z,80.76
2019-03-18T02:29:37.604Z,80.17
2019-03-18T02:32:25.831Z,80.82
2019-03-18T02:35:13.574Z,81.14
2019-03-18T02:38:01.670Z,82.12
2019-03-18T02:40:50.123Z,82.95
2019-03-18T02:43:38.653Z,83.11
2019-03-18T02:46:26.459Z,83.07
2019-03-18T02:49:14.511Z,82.96
2019-03-18T02:52:03.044Z,82.59
2019-03-18T02:54:51.360Z,84.02
2019-03-18T02:57:39.132Z,84.73
2019-03-18T03:00:27.477Z,88.12
2019-03-18T03:03:18.433Z,90.03
2019-03-18T03:06:06.753Z,90.41
2019-03-18T03:08:55.210Z,88.42
2019-03-18T03:11:43.028Z,89.21
2019-03-18T03:14:31.441Z,87.14
2019-03-18T03:17:21.610Z,86.83
2019-03-18T03:20:09.180Z,85.64
2019-03-18T03:22:57.343Z,87.11
2019-03-18T03:25:45.795Z,87.38
2019-03-18T03:28:34.224Z,87.21
2019-03-18T03:31:22.040Z,87.41
2019-03-18T03:34:13.246Z,86.75
2019-03-18T03:36:59.524Z,87.33
2019-03-18T03:39:47.373Z,90.49
2019-03-18T03:42:35.835Z,90.44
2019-03-18T03:45:24.013Z,91.26
2019-03-18T03:48:12.670Z,91.94
2019-03-18T03:51:01.017Z,91.78
2019-03-18T03:53:49.457Z,89.97
2019-03-18T03:56:37.921Z,88.83
2019-03-18T03:59:26.445Z,88.85
2019-03-18T04:02:15.020Z,88.87
2019-03-18T04:05:03.216Z,91.25
2019-03-18T04:07:51.701Z,91.83
2019-03-18T04:10:40.079Z,93.35
2019-03-18T04:13:27.972Z,92.41
2019-03-18T04:16:15.944Z,90.88
2019-03-18T04:19:03.891Z,88.96
2019-03-18T04:21:52.129Z,88.25
2019-03-18T04:24:40.723Z,87.72
2019-03-18T04:27:29.118Z,89.32
2019-03-18T04:30:16.777Z,88.79
2019-03-18T04:33:05.177Z,87.13
2019-03-18T04:35:53.582Z,87.25
2019-03-18T04:38:41.802Z,87.82
2019-03-18T04:41:30.143Z,88.17
2019-03-18T04:44:18.317Z,87.99
2019-03-18T04:47:14.234Z,88.67
2019-03-18T04:49:55.730Z,88.23
2019-03-18T04:52:43.661Z,87.19
2019-03-18T04:55:32.130Z,86.75
2019-03-18T04:58:20.357Z,86.27
2019-03-18T05:01:08.179Z,85.34
2019-03-18T05:03:56.602Z,88.32
2019-03-18T05:06:44.372Z,89.26
2019-03-18T05:09:32.742Z,88.49
2019-03-18T05:12:21.253Z,92.16
2019-03-18T05:15:09.776Z,92.22
2019-03-18T05:17:57.448Z,90.77
2019-03-18T05:20:45.820Z,90.56
2019-03-18T05:23:34.308Z,90.88
2019-03-18T05:26:22.588Z,89.33
2019-03-18T05:29:11.520Z,87.59
2019-03-18T05:31:59.203Z,86.46
2019-03-18T05:34:47.614Z,85.19
2019-03-18T05:37:35.841Z,84.78
2019-03-18T05:40:23.575Z,84.57
2019-03-18T05:43:12.218Z,86.77
2019-03-18T05:46:01.007Z,87.65
2019-03-18T05:48:49.084Z,88.10
2019-03-18T05:51:37.328Z,88.43
2019-03-18T05:54:29.431Z,87.64
2019-03-18T05:57:17.468Z,85.32
2019-03-18T06:00:06.484Z,83.32
2019-03-18T06:02:57.853Z,78.83
2019-03-18T06:05:45.939Z,78.76
2019-03-18T06:08:34.571Z,78.34
2019-03-18T06:11:22.936Z,76.36
2019-03-18T06:14:11.404Z,75.18
2019-03-18T06:16:59.809Z,74.37
2019-03-18T06:19:48.660Z,74.63
2019-03-18T06:22:36.875Z,73.52
2019-03-18T06:25:24.947Z,73.59
2019-03-18T06:28:12.641Z,73.50
2019-03-18T06:31:00.776Z,72.47
2019-03-18T06:33:48.996Z,70.74
2019-03-18T06:36:37.429Z,70.09
2019-03-18T06:39:25.541Z,68.68
2019-03-18T06:42:13.923Z,67.15
2019-03-18T06:45:02.453Z,68.57
2019-03-18T06:47:50.950Z,68.54
2019-03-18T06:50:39.318Z,67.58
2019-03-18T06:53:27.826Z,66.27
2019-03-18T06:56:15.903Z,65.90
2019-03-18T06:59:04.570Z,65.04
2019-03-18T07:01:53.886Z,64.06
2019-03-18T07:04:42.279Z,62.49
2019-03-18T07:07:30.699Z,61.48
2019-03-18T07:10:18.805Z,62.12
2019-03-18T07:13:06.876Z,61.28
2019-03-18T07:15:54.967Z,63.28
2019-03-18T07:18:43.340Z,62.98
2019-03-18T07:21:31.541Z,61.86
2019-03-18T07:24:19.853Z,62.73
2019-03-18T07:27:08.287Z,61.47
2019-03-18T07:29:56.541Z,60.84
2019-03-18T07:32:44.936Z,61.10
2019-03-18T07:35:33.243Z,60.31
2019-03-18T07:38:21.289Z,59.40
2019-03-18T07:41:09.728Z,59.40
2019-03-18T07:43:58.256Z,61.14
2019-03-18T07:46:46.436Z,60.82
2019-03-18T07:49:35.044Z,58.83
2019-03-18T07:52:22.680Z,58.72
2019-03-18T07:55:10.479Z,57.70
2019-03-18T07:57:58.574Z,56.53
2019-03-18T08:00:47.288Z,56.77
2019-03-18T08:03:36.955Z,56.04
2019-03-18T08:06:25.333Z,55.43
2019-03-18T08:09:13.091Z,55.47
2019-03-18T08:12:01.106Z,55.10
2019-03-18T08:14:49.585Z,55.58
2019-03-18T08:17:37.353Z,55.75
2019-03-18T08:20:25.736Z,53.94
2019-03-18T08:23:14.247Z,53.35
2019-03-18T08:26:02.808Z,53.72
2019-03-18T08:28:50.891Z,52.90
2019-03-18T08:31:39.229Z,53.63
2019-03-18T08:34:27.708Z,54.45
2019-03-18T08:37:16.319Z,53.24
2019-03-18T08:40:05.280Z,53.41
2019-03-18T08:42:53.016Z,52.89
2019-03-18T08:45:41.192Z,51.62
2019-03-18T08:48:29.196Z,50.67
2019-03-18T08:51:17.786Z,50.82
2019-03-18T08:54:06.067Z,50.71
2019-03-18T08:56:53.835Z,50.26
2019-03-18T08:59:41.845Z,50.58
2019-03-18T09:02:29.685Z,49.96
2019-03-18T09:05:19.081Z,49.92
2019-03-18T09:08:07.282Z,49.73
2019-03-18T09:10:55.729Z,49.62
2019-03-18T09:13:43.994Z,49.50
2019-03-18T09:16:32.162Z,48.54
2019-03-18T09:19:20.595Z,48.39
2019-03-18T09:22:08.931Z,47.70
2019-03-18T09:24:57.069Z,47.69
2019-03-18T09:27:45.671Z,46.61
2019-03-18T09:30:33.719Z,47.33
2019-03-18T09:33:22.135Z,47.86
2019-03-18T09:36:11.900Z,46.83
2019-03-18T09:38:59.916Z,46.26
2019-03-18T09:41:47.691Z,46.28
2019-03-18T09:44:36.082Z,45.89
2019-03-18T09:47:24.544Z,45.73
2019-03-18T09:50:12.365Z,46.45
2019-03-18T09:53:00.265Z,46.12
2019-03-18T09:55:48.589Z,45.41
2019-03-18T09:58:36.699Z,46.17
2019-03-18T10:01:24.742Z,44.64
2019-03-18T10:04:12.551Z,44.17
2019-03-18T10:07:01.829Z,43.34
2019-03-18T10:09:50.200Z,44.40
2019-03-18T10:12:39.253Z,43.33
2019-03-18T10:15:27.700Z,43.14
2019-03-18T10:18:15.846Z,43.50
2019-03-18T10:21:04.247Z,43.40
2019-03-18T10:23:52.340Z,42.80
2019-03-18T10:26:40.747Z,42.55
2019-03-18T10:29:29.304Z,42.29
2019-03-18T10:32:17.767Z,40.17
2019-03-18T10:35:06.208Z,40.29
2019-03-18T10:37:54.244Z,39.26
2019-03-18T10:40:42.421Z,37.22
2019-03-18T10:43:30.934Z,37.66
2019-03-18T10:46:18.911Z,38.06
2019-03-18T10:49:07.588Z,38.54
2019-03-18T10:51:55.628Z,37.79
2019-03-18T10:54:44.193Z,37.68
2019-03-18T10:57:31.847Z,37.13
2019-03-18T11:00:20.392Z,37.61
2019-03-18T11:03:08.454Z,35.82
2019-03-18T11:05:57.129Z,35.82
2019-03-18T11:08:46.438Z,34.47
2019-03-18T11:11:34.835Z,36.88
2019-03-18T11:14:23.395Z,35.02
2019-03-18T11:17:11.585Z,36.52
2019-03-18T11:20:00.259Z,35.00
2019-03-18T11:22:48.509Z,34.77
2019-03-18T11:25:36.652Z,33.19
2019-03-18T11:28:25.263Z,35.22
2019-03-18T11:31:13.201Z,34.70
2019-03-18T11:34:00.921Z,35.25
2019-03-18T11:36:49.686Z,34.00
2019-03-18T11:39:37.363Z,33.03
2019-03-18T11:42:25.342Z,33.68
2019-03-18T11:45:13.666Z,34.62
2019-03-18T11:48:01.390Z,35.29
2019-03-18T11:50:49.964Z,35.75
2019-03-18T11:53:37.807Z,33.80
2019-03-18T11:56:26.612Z,35.47
2019-03-18T11:59:14.652Z,35.13
2019-03-18T12:02:02.260Z,34.74
2019-03-18T12:04:50.044Z,35.25
2019-03-18T12:07:38.405Z,34.15
2019-03-18T12:10:27.285Z,33.97
2019-03-18T12:13:15.583Z,33.37
2019-03-18T12:16:03.739Z,31.92
2019-03-18T12:18:52.181Z,30.22
2019-03-18T12:21:40.769Z,31.36
2019-03-18T12:24:28.844Z,31.86
2019-03-18T12:27:17.806Z,31.01
2019-03-18T12:30:06.236Z,31.14
2019-03-18T12:32:55.118Z,30.90
2019-03-18T12:35:42.640Z,29.14
2019-03-18T12:38:32.219Z,27.51
2019-03-18T12:41:21.224Z,26.61
2019-03-18T12:44:09.845Z,26.97
2019-03-18T12:46:58.358Z,26.57
2019-03-18T12:49:46.790Z,27.58
2019-03-18T12:52:35.341Z,25.98
2019-03-18T12:55:23.185Z,26.84
2019-03-18T12:58:11.150Z,25.28
2019-03-18T13:01:11.850Z,25.43
2019-03-18T13:03:49.559Z,24.54
2019-03-18T13:06:37.291Z,24.35
2019-03-18T13:09:25.189Z,23.28
2019-03-18T13:11:55.975Z,20.47
2019-03-18T13:14:25.816Z,19.62
2019-03-18T13:16:55.842Z,20.67
2019-03-18T13:19:25.672Z,20.61
2019-03-18T13:21:55.500Z,21.33
2019-03-18T13:24:25.791Z,21.46
2019-03-18T13:26:58.519Z,21.61
2019-03-18T13:29:27.066Z,21.23
2019-03-18T13:31:58.403Z,22.30
2019-03-18T13:34:28.345Z,21.99
2019-03-18T13:36:58.177Z,21.40
2019-03-18T13:39:32.132Z,21.39
2019-03-18T13:42:01.976Z,20.73
2019-03-18T13:44:34.572Z,21.13
2019-03-18T13:47:04.442Z,19.43
2019-03-18T13:49:34.698Z,19.85
2019-03-18T13:52:08.446Z,20.53
2019-03-18T13:54:38.268Z,18.39
2019-03-18T13:57:08.105Z,18.25
2019-03-18T13:59:38.041Z,17.11
2019-03-18T14:02:07.974Z,16.97
2019-03-18T14:04:38.209Z,17.45
2019-03-18T14:07:08.195Z,17.48
2019-03-18T14:09:39.443Z,17.11
2019-03-18T14:12:11.401Z,16.82
2019-03-18T14:14:42.554Z,17.63
2019-03-18T14:17:13.547Z,16.63
2019-03-18T14:19:45.465Z,16.10
2019-03-18T14:22:20.461Z,16.28
2019-03-18T14:24:52.077Z,16.08
2019-03-18T14:27:23.261Z,15.70
2019-03-18T14:29:54.282Z,16.14
2019-03-18T14:32:25.883Z,15.64
2019-03-18T14:35:00.571Z,16.69
2019-03-18T14:37:32.786Z,16.34
2019-03-18T14:40:09.025Z,18.97
2019-03-18T14:42:40.174Z,18.95
2019-03-18T14:45:13.960Z,20.52
2019-03-18T14:47:44.944Z,17.71
2019-03-18T14:50:17.274Z,17.84
2019-03-18T14:52:48.890Z,16.45
2019-03-18T14:55:20.341Z,14.64
2019-03-18T14:57:51.512Z,15.74
2019-03-18T15:00:24.006Z,17.19
2019-03-18T15:02:55.784Z,18.97
2019-03-18T15:05:27.857Z,20.01
2019-03-18T15:08:01.549Z,22.80
2019-03-18T15:10:33.232Z,21.94
2019-03-18T15:13:05.341Z,22.48
2019-03-18T15:15:36.438Z,22.97
2019-03-18T15:18:07.471Z,24.03
2019-03-18T15:20:38.560Z,23.78
2019-03-18T15:23:09.614Z,24.18
2019-03-18T15:25:40.596Z,25.17
2019-03-18T15:28:12.014Z,25.20
2019-03-18T15:31:02.346Z,25.46
2019-03-18T15:33:52.296Z,25.51
2019-03-18T15:36:41.997Z,25.63
2019-03-18T15:39:12.977Z,26.73
2019-03-18T15:41:43.968Z,27.68
2019-03-18T15:44:15.455Z,27.38
2019-03-18T15:46:46.433Z,28.00
2019-03-18T15:49:17.506Z,27.89
2019-03-18T15:51:48.541Z,27.75
2019-03-18T15:54:19.913Z,28.57
2019-03-18T15:56:50.914Z,28.43
2019-03-18T15:59:22.526Z,29.27
2019-03-18T16:01:53.508Z,29.32
2019-03-18T16:04:25.257Z,29.70
2019-03-18T16:06:56.676Z,30.83
2019-03-18T16:09:28.094Z,32.29
2019-03-18T16:11:59.337Z,34.34
2019-03-18T16:14:31.624Z,37.22
2019-03-18T16:17:03.007Z,39.97
2019-03-18T16:19:34.729Z,41.90
2019-03-18T16:22:05.752Z,42.95
2019-03-18T16:24:37.269Z,43.41
2019-03-18T16:27:08.259Z,44.59
2019-03-18T16:29:39.376Z,45.59
2019-03-18T16:32:11.508Z,45.26
2019-03-18T16:34:43.240Z,40.76
2019-03-18T16:37:14.624Z,37.43
2019-03-18T16:39:45.608Z,36.22
2019-03-18T16:42:15.944Z,36.53
2019-03-18T16:44:45.881Z,36.02
2019-03-18T16:47:16.148Z,36.97
2019-03-18T16:49:45.988Z,41.38
2019-03-18T16:52:15.927Z,41.99
2019-03-18T16:54:45.819Z,43.49
2019-03-18T16:57:15.581Z,42.30
2019-03-18T16:59:45.460Z,40.53
2019-03-18T17:02:15.779Z,40.39
2019-03-18T17:04:46.113Z,40.81
2019-03-18T17:07:16.047Z,40.68
2019-03-18T17:09:46.853Z,41.97
2019-03-18T17:12:16.691Z,43.22
2019-03-18T17:14:47.484Z,43.47
2019-03-18T17:17:17.321Z,44.27
2019-03-18T17:19:47.140Z,46.12
2019-03-18T17:22:18.208Z,47.75
2019-03-18T17:24:49.275Z,48.65
2019-03-18T17:27:19.248Z,49.70
2019-03-18T17:29:49.124Z,50.63
2019-03-18T17:32:19.887Z,52.40
2019-03-18T17:34:49.737Z,52.54
2019-03-18T17:37:20.015Z,52.29
2019-03-18T17:39:50.576Z,54.48
2019-03-18T17:42:21.206Z,53.92
2019-03-18T17:44:51.065Z,54.91
2019-03-18T17:47:20.920Z,55.36
2019-03-18T17:49:50.733Z,55.34
2019-03-18T17:52:21.085Z,56.11
2019-03-18T17:54:50.917Z,55.52
2019-03-18T17:57:20.834Z,56.72
2019-03-18T17:59:51.307Z,57.07
2019-03-18T18:02:21.227Z,58.01
2019-03-18T18:05:02.336Z,58.67
2019-03-18T18:07:23.140Z,59.33
2019-03-18T18:09:52.988Z,57.75
2019-03-18T18:12:22.932Z,58.32
2019-03-18T18:14:53.832Z,60.03
2019-03-18T18:17:23.751Z,60.01
2019-03-18T18:19:53.660Z,62.40
2019-03-18T18:22:23.524Z,62.57
2019-03-18T18:24:53.869Z,63.86
2019-03-18T18:27:23.699Z,61.95
2019-03-18T18:29:53.647Z,61.77
2019-03-18T18:32:24.020Z,62.67
2019-03-18T18:34:55.140Z,61.85
2019-03-18T18:37:25.824Z,63.16
2019-03-18T18:39:55.932Z,64.71
2019-03-18T18:42:25.737Z,64.54
2019-03-18T18:44:55.808Z,64.50
2019-03-18T18:47:25.752Z,64.64
2019-03-18T18:49:55.633Z,65.70
2019-03-18T18:52:25.583Z,63.97
2019-03-18T18:54:55.436Z,64.56
2019-03-18T18:57:25.259Z,64.94
2019-03-18T18:59:55.300Z,64.01
2019-03-18T19:02:25.270Z,65.85
2019-03-18T19:04:55.260Z,65.11
2019-03-18T19:07:25.468Z,65.48
2019-03-18T19:09:55.784Z,64.92
2019-03-18T19:12:25.682Z,66.49
2019-03-18T19:14:57.412Z,68.49
2019-03-18T19:17:27.397Z,67.07
2019-03-18T19:19:57.326Z,67.01
2019-03-18T19:22:27.664Z,66.79
2019-03-18T19:24:57.953Z,67.48
2019-03-18T19:27:28.394Z,66.81
2019-03-18T19:29:58.525Z,65.85
2019-03-18T19:32:28.780Z,65.33
2019-03-18T19:34:58.865Z,66.47
2019-03-18T19:37:29.707Z,67.26
2019-03-18T19:40:00.276Z,66.05
2019-03-18T19:42:30.477Z,65.63
2019-03-18T19:45:00.750Z,68.24
2019-03-18T19:47:30.736Z,66.85
2019-03-18T19:50:01.296Z,67.03
2019-03-18T19:52:31.493Z,67.79
2019-03-18T19:55:01.532Z,67.20
2019-03-18T19:57:31.875Z,67.66
2019-03-18T20:00:02.351Z,68.38
2019-03-18T20:02:32.491Z,68.04
2019-03-18T20:05:02.719Z,69.15
2019-03-18T20:07:32.653Z,69.21
2019-03-18T20:10:02.690Z,70.13
2019-03-18T20:12:32.590Z,69.24
2019-03-18T20:15:03.805Z,69.95
2019-03-18T20:17:33.645Z,66.76
2019-03-18T20:20:03.623Z,67.40
2019-03-18T20:22:33.716Z,68.83
2019-03-18T20:25:04.455Z,72.40
2019-03-18T20:27:34.489Z,72.82
2019-03-18T20:30:05.691Z,72.80
2019-03-18T20:32:35.488Z,73.43
2019-03-18T20:35:06.645Z,73.45
2019-03-18T20:37:37.008Z,75.07
2019-03-18T20:40:07.885Z,75.64
2019-03-18T20:42:37.919Z,74.18
2019-03-18T20:45:09.470Z,75.13
2019-03-18T20:47:39.462Z,76.04
2019-03-18T20:50:10.809Z,76.35
2019-03-18T20:52:41.311Z,76.53
2019-03-18T20:55:11.537Z,76.92
2019-03-18T20:57:41.910Z,77.86
2019-03-18T21:00:30.556Z,78.67
2019-03-18T21:03:18.966Z,78.45
2019-03-18T21:06:07.928Z,77.80
2019-03-18T21:08:55.844Z,78.00
2019-03-18T21:11:44.025Z,78.80
2019-03-18T21:14:32.377Z,78.81
2019-03-18T21:17:21.873Z,77.91
2019-03-18T21:20:11.580Z,76.45
2019-03-18T21:23:00.164Z,77.90
2019-03-18T21:25:48.445Z,78.28
2019-03-18T21:28:41.323Z,77.76
2019-03-18T21:31:26.679Z,78.22
2019-03-18T21:34:14.633Z,73.82
2019-03-18T21:37:03.358Z,73.35
2019-03-18T21:39:52.158Z,73.49
2019-03-18T21:42:40.123Z,73.73
2019-03-18T21:45:28.740Z,73.11
2019-03-18T21:48:16.486Z,73.98
2019-03-18T21:51:05.186Z,72.74
2019-03-18T21:53:53.908Z,73.14
2019-03-18T21:56:42.143Z,74.83
2019-03-18T21:59:30.660Z,74.13
2019-03-18T22:02:19.312Z,76.19
2019-03-18T22:05:07.089Z,76.97
2019-03-18T22:07:54.843Z,77.21
2019-03-18T22:10:43.518Z,78.35
2019-03-18T22:13:31.060Z,79.02
2019-03-18T22:16:20.549Z,78.19
2019-03-18T22:19:09.387Z,77.59
2019-03-18T22:21:57.932Z,77.48
2019-03-18T22:24:45.908Z,77.82
2019-03-18T22:27:35.805Z,76.38
2019-03-18T22:30:24.439Z,75.53
2019-03-18T22:33:12.888Z,77.92
2019-03-18T22:36:02.523Z,81.01
2019-03-18T22:38:50.344Z,82.41
2019-03-18T22:41:38.817Z,82.69
2019-03-18T22:44:26.754Z,84.07
2019-03-18T22:47:15.196Z,84.42
2019-03-18T22:50:03.199Z,84.00
2019-03-18T22:52:50.902Z,83.35
2019-03-18T22:55:39.346Z,85.02
2019-03-18T22:58:28.275Z,84.95
2019-03-18T23:01:21.507Z,84.86
2019-03-18T23:04:10.030Z,83.19
2019-03-18T23:06:58.344Z,83.23
2019-03-18T23:09:46.039Z,82.26
2019-03-18T23:12:34.246Z,82.99
2019-03-18T23:15:22.793Z,83.09
2019-03-18T23:18:10.795Z,83.50
2019-03-18T23:21:00.768Z,82.66
2019-03-18T23:23:48.678Z,83.16
2019-03-18T23:26:37.242Z,88.30
2019-03-18T23:29:28.026Z,91.15
2019-03-18T23:32:16.471Z,90.26
2019-03-18T23:35:05.527Z,88.28
2019-03-18T23:37:53.130Z,87.67
2019-03-18T23:40:41.592Z,89.00
2019-03-18T23:43:29.979Z,89.70
2019-03-18T23:46:18.386Z,88.46
2019-03-18T23:49:06.596Z,86.80
2019-03-18T23:51:55.307Z,87.16
2019-03-18T23:54:43.431Z,87.80
2019-03-18T23:57:31.939Z,88.56
